Time;durP1;ratioP1;P1;durP2;ratioP2;P2;SDS_P1;SDS_P2;PMS_P1;PMS_P2;Temp;Humidity;BMP_temperature;BMP_pressure;BME280_temperature;BME280_humidity;BME280_pressure;Samples;Min_cycle;Max_cycle;Signal;HPM_P1;HPM_P2
2021/08/13 00:00:15;;;;;;;11.57;10.47;;;19.20;99.90;;;;;;5024243;28;20191;-41
2021/08/13 00:02:41;;;;;;;11.93;10.70;;;19.10;99.90;;;;;;5030910;28;20182;-39
2021/08/13 00:05:08;;;;;;;11.73;9.97;;;19.00;99.90;;;;;;5029784;28;20381;-40
2021/08/13 00:07:34;;;;;;;10.90;9.80;;;19.00;99.90;;;;;;5025145;28;20221;-40
2021/08/13 00:10:00;;;;;;;11.97;10.77;;;19.00;99.90;;;;;;5027028;28;20809;-41
2021/08/13 00:12:25;;;;;;;11.93;10.73;;;19.00;99.90;;;;;;5029708;28;20179;-40
2021/08/13 00:14:51;;;;;;;13.47;11.03;;;19.10;99.90;;;;;;5028918;28;20190;-39
2021/08/13 00:17:17;;;;;;;12.47;10.73;;;19.20;99.90;;;;;;5026206;28;20252;-43
2021/08/13 00:19:42;;;;;;;12.23;11.03;;;19.20;99.90;;;;;;5029045;28;20210;-42
2021/08/13 00:22:08;;;;;;;10.77;9.77;;;19.20;99.90;;;;;;5026582;28;20228;-40
2021/08/13 00:24:34;;;;;;;11.57;10.37;;;19.20;99.90;;;;;;5030436;28;20616;-40
2021/08/13 00:26:59;;;;;;;10.87;9.87;;;19.10;99.90;;;;;;5040386;28;20189;-41
2021/08/13 00:29:25;;;;;;;10.05;9.00;;;19.10;99.90;;;;;;5042230;28;20305;-38
2021/08/13 00:31:51;;;;;;;11.13;10.00;;;19.10;99.90;;;;;;5028419;28;20190;-38
2021/08/13 00:34:16;;;;;;;12.60;11.20;;;19.00;99.90;;;;;;5030312;28;20190;-39
2021/08/13 00:36:42;;;;;;;12.10;10.90;;;18.90;99.90;;;;;;5028562;28;20232;-38
2021/08/13 00:39:08;;;;;;;12.50;10.23;;;19.00;99.90;;;;;;5025938;28;20190;-39
2021/08/13 00:41:33;;;;;;;14.80;10.10;;;19.10;99.90;;;;;;5035590;28;20306;-38
2021/08/13 00:43:59;;;;;;;11.13;10.03;;;19.00;99.90;;;;;;5044210;28;20186;-40
2021/08/13 00:46:24;;;;;;;10.67;9.57;;;19.00;99.90;;;;;;5028743;28;20559;-39
2021/08/13 00:48:50;;;;;;;10.80;9.70;;;18.90;99.90;;;;;;5038491;28;20732;-38
2021/08/13 00:51:16;;;;;;;11.57;10.37;;;18.90;99.90;;;;;;5028047;28;20213;-39
2021/08/13 00:53:42;;;;;;;12.10;10.37;;;18.80;99.90;;;;;;5028147;28;20424;-40
2021/08/13 00:56:09;;;;;;;11.33;10.13;;;18.80;99.90;;;;;;5035714;28;20182;-39
2021/08/13 00:58:35;;;;;;;11.37;10.33;;;18.80;99.90;;;;;;5038778;28;20186;-38
2021/08/13 01:01:00;;;;;;;10.87;9.80;;;18.70;99.90;;;;;;5027989;28;20510;-38
2021/08/13 01:03:27;;;;;;;11.50;10.40;;;18.70;99.90;;;;;;5032798;28;20664;-40
2021/08/13 01:05:53;;;;;;;10.10;9.20;;;18.70;99.90;;;;;;5026553;28;20195;-39
2021/08/13 01:08:19;;;;;;;10.83;9.73;;;18.70;99.90;;;;;;5027506;28;20494;-39
2021/08/13 01:11:26;;;;;;;11.50;10.30;;;18.60;99.90;;;;;;5031093;28;20233;-39
2021/08/13 01:14:01;;;;;;;13.60;10.17;;;18.60;99.90;;;;;;5029675;28;20272;-38
2021/08/13 01:16:29;;;;;;;10.50;9.60;;;18.60;99.90;;;;;;5032755;28;21158;-42
2021/08/13 01:19:12;;;;;;;11.03;9.90;;;18.60;99.90;;;;;;5029011;28;20818;-38
2021/08/13 01:21:48;;;;;;;10.97;9.93;;;18.60;99.90;;;;;;5027412;28;20425;-39
2021/08/13 01:24:20;;;;;;;11.50;10.40;;;18.50;99.90;;;;;;5027168;28;20837;-41
2021/08/13 01:27:00;;;;;;;11.60;10.40;;;18.40;99.90;;;;;;5040267;28;20527;-39
2021/08/13 01:29:43;;;;;;;10.30;9.30;;;18.30;99.90;;;;;;5035234;28;20510;-38
2021/08/13 01:32:12;;;;;;;13.17;10.43;;;18.40;99.90;;;;;;5027460;28;20865;-39
2021/08/13 01:35:00;;;;;;;10.60;9.70;;;18.30;99.90;;;;;;5038068;28;20559;-40
2021/08/13 01:37:26;;;;;;;11.17;10.03;;;18.20;99.90;;;;;;5027454;28;20428;-40
2021/08/13 01:39:54;;;;;;;10.93;9.77;;;18.20;99.90;;;;;;5024975;28;20535;-38
2021/08/13 01:42:20;;;;;;;11.73;10.40;;;18.20;99.90;;;;;;5028240;28;20453;-39
2021/08/13 01:44:47;;;;;;;11.83;9.83;;;18.20;99.90;;;;;;5036799;28;20955;-38
2021/08/13 01:47:14;;;;;;;10.70;9.60;;;18.20;99.90;;;;;;5042120;28;20189;-41
2021/08/13 01:49:40;;;;;;;10.20;9.20;;;18.30;99.90;;;;;;5038024;28;20562;-38
2021/08/13 01:52:07;;;;;;;11.60;10.40;;;18.30;99.90;;;;;;5027100;28;20421;-38
2021/08/13 01:54:34;;;;;;;10.27;9.27;;;18.30;99.90;;;;;;5026380;28;20840;-39
2021/08/13 01:57:00;;;;;;;10.00;9.00;;;18.20;99.90;;;;;;5029018;28;20654;-38
2021/08/13 01:59:26;;;;;;;11.67;10.60;;;18.30;99.90;;;;;;5041583;28;20412;-40
2021/08/13 02:01:51;;;;;;;11.00;9.90;;;18.30;99.90;;;;;;5030169;28;20183;-39
2021/08/13 02:04:20;;;;;;;11.87;9.43;;;18.30;99.90;;;;;;5029648;28;20532;-40
2021/08/13 02:06:47;;;;;;;11.30;10.20;;;18.20;99.90;;;;;;5026485;28;20178;-39
2021/08/13 02:09:15;;;;;;;12.93;9.60;;;18.20;99.90;;;;;;5025825;28;20464;-39
2021/08/13 02:11:42;;;;;;;11.30;9.83;;;18.10;99.90;;;;;;5030077;28;20638;-39
2021/08/13 02:14:08;;;;;;;10.87;9.77;;;18.00;99.90;;;;;;5035516;28;20417;-39
2021/08/13 02:16:35;;;;;;;11.77;10.00;;;18.00;99.90;;;;;;5026348;28;20740;-39
2021/08/13 02:19:09;;;;;;;12.40;10.40;;;18.00;99.90;;;;;;5034187;28;20459;-38
2021/08/13 02:21:38;;;;;;;11.53;10.47;;;18.00;99.90;;;;;;5028511;28;20807;-39
2021/08/13 02:24:04;;;;;;;11.50;10.33;;;18.10;99.90;;;;;;5026295;28;20444;-39
2021/08/13 02:26:31;;;;;;;11.10;10.10;;;18.10;99.90;;;;;;5029772;28;20743;-39
2021/08/13 02:28:57;;;;;;;10.87;9.83;;;18.10;99.90;;;;;;5033023;28;20455;-39
2021/08/13 02:31:22;;;;;;;10.20;9.20;;;18.00;99.90;;;;;;5026084;28;20990;-39
2021/08/13 02:33:48;;;;;;;10.50;9.50;;;18.10;99.90;;;;;;5032268;28;20456;-39
2021/08/13 02:36:16;;;;;;;12.00;9.67;;;18.10;99.90;;;;;;5028129;28;20238;-38
2021/08/13 02:39:01;;;;;;;12.73;10.77;;;18.10;99.90;;;;;;5025343;28;20502;-40
2021/08/13 02:41:31;;;;;;;10.60;9.47;;;18.10;99.90;;;;;;5032035;28;20514;-43
2021/08/13 02:44:03;;;;;;;11.27;9.27;;;18.10;99.90;;;;;;5039370;28;20521;-39
2021/08/13 02:46:36;;;;;;;12.23;9.23;;;18.10;99.90;;;;;;5036987;28;20405;-40
2021/08/13 02:49:05;;;;;;;12.43;11.00;;;18.00;99.90;;;;;;5028333;28;20431;-39
2021/08/13 02:51:34;;;;;;;11.67;10.57;;;18.00;99.90;;;;;;5025914;28;20487;-39
2021/08/13 02:54:01;;;;;;;11.00;9.80;;;18.00;99.90;;;;;;5025995;28;20869;-38
2021/08/13 02:56:30;;;;;;;11.60;10.50;;;18.00;99.90;;;;;;5028144;28;20448;-39
2021/08/13 02:59:00;;;;;;;10.83;9.60;;;17.90;99.90;;;;;;5037371;28;20536;-39
2021/08/13 03:01:31;;;;;;;15.23;10.10;;;17.90;99.90;;;;;;5032401;28;20433;-39
2021/08/13 03:03:57;;;;;;;11.10;9.90;;;17.90;99.90;;;;;;5030308;28;20521;-39
2021/08/13 03:06:28;;;;;;;10.87;9.87;;;17.90;99.90;;;;;;5032788;28;20572;-38
2021/08/13 03:08:55;;;;;;;10.60;9.60;;;17.90;99.90;;;;;;5024908;28;20451;-39
2021/08/13 03:11:22;;;;;;;11.87;10.53;;;17.80;99.90;;;;;;5027451;28;20485;-38
2021/08/13 03:13:48;;;;;;;10.40;9.50;;;17.90;99.90;;;;;;5040549;28;20412;-40
2021/08/13 03:16:15;;;;;;;10.53;9.50;;;17.90;99.90;;;;;;5028615;28;20425;-39
2021/08/13 03:18:41;;;;;;;12.07;9.67;;;17.90;99.90;;;;;;5026754;28;20425;-39
2021/08/13 03:21:09;;;;;;;12.07;10.80;;;17.90;99.90;;;;;;5030953;28;20782;-39
2021/08/13 03:23:37;;;;;;;10.70;9.07;;;18.00;99.90;;;;;;5025659;28;20918;-39
2021/08/13 03:26:02;;;;;;;11.03;10.00;;;18.00;99.90;;;;;;5025020;28;20433;-38
2021/08/13 03:28:28;;;;;;;10.40;8.87;;;18.00;99.90;;;;;;5037206;28;21003;-38
2021/08/13 03:30:54;;;;;;;10.67;9.67;;;18.00;99.90;;;;;;5042620;28;20213;-39
2021/08/13 03:33:20;;;;;;;12.83;10.30;;;18.10;99.90;;;;;;5026059;28;20225;-38
2021/08/13 03:35:48;;;;;;;11.67;10.47;;;18.00;99.90;;;;;;5029232;28;20193;-39
2021/08/13 03:38:14;;;;;;;10.50;9.40;;;18.00;99.90;;;;;;5026021;28;20554;-38
2021/08/13 03:40:40;;;;;;;12.47;10.80;;;17.90;99.90;;;;;;5022757;28;20449;-38
2021/08/13 03:43:06;;;;;;;11.70;10.50;;;17.90;99.90;;;;;;5038698;28;20261;-40
2021/08/13 03:45:32;;;;;;;11.43;10.33;;;17.90;99.90;;;;;;5037873;28;20515;-41
2021/08/13 03:47:57;;;;;;;10.70;9.73;;;17.80;99.90;;;;;;5025346;28;20252;-39
2021/08/13 03:50:23;;;;;;;11.63;10.10;;;17.80;99.90;;;;;;5037172;28;20507;-38
2021/08/13 03:52:49;;;;;;;10.87;9.77;;;17.80;99.90;;;;;;5025303;28;20186;-38
2021/08/13 03:55:15;;;;;;;10.97;9.87;;;17.80;99.90;;;;;;5025280;28;20182;-38
2021/08/13 03:57:41;;;;;;;11.00;9.70;;;17.80;99.90;;;;;;5028060;28;20428;-39
2021/08/13 04:00:09;;;;;;;10.60;9.60;;;17.70;99.90;;;;;;5030738;28;20524;-38
2021/08/13 04:02:34;;;;;;;11.20;10.10;;;17.70;99.90;;;;;;5028965;28;20567;-38
2021/08/13 04:05:00;;;;;;;10.87;9.80;;;17.70;99.90;;;;;;5037731;28;20601;-38
2021/08/13 04:07:26;;;;;;;11.50;10.40;;;17.70;99.90;;;;;;5028893;28;20205;-38
2021/08/13 04:09:51;;;;;;;13.30;10.47;;;17.70;99.90;;;;;;5029022;28;20217;-39
2021/08/13 04:12:18;;;;;;;12.60;10.67;;;17.80;99.90;;;;;;5033718;28;20774;-42
2021/08/13 04:14:44;;;;;;;10.83;9.77;;;17.70;99.90;;;;;;5040213;28;20235;-40
2021/08/13 04:17:09;;;;;;;10.43;9.43;;;17.80;99.90;;;;;;5040279;28;20986;-39
2021/08/13 04:19:35;;;;;;;12.50;10.23;;;17.80;99.90;;;;;;5032579;28;20206;-38
2021/08/13 04:22:02;;;;;;;11.80;10.23;;;17.80;99.90;;;;;;5028906;28;20186;-38
2021/08/13 04:24:27;;;;;;;10.07;9.13;;;17.80;99.90;;;;;;5028675;28;20197;-38
2021/08/13 04:26:54;;;;;;;11.57;10.47;;;17.70;99.90;;;;;;5032111;28;20441;-38
2021/08/13 04:29:19;;;;;;;10.23;9.30;;;17.60;99.90;;;;;;5043019;28;20181;-38
2021/08/13 04:31:45;;;;;;;12.80;10.70;;;17.60;99.90;;;;;;5031586;28;20456;-38
2021/08/13 04:34:10;;;;;;;11.77;10.50;;;17.60;99.90;;;;;;5028794;28;20197;-40
2021/08/13 04:36:36;;;;;;;11.87;10.67;;;17.50;99.90;;;;;;5028756;28;20186;-39
2021/08/13 04:39:02;;;;;;;12.50;11.30;;;17.50;99.90;;;;;;5027544;28;20244;-39
2021/08/13 04:41:28;;;;;;;11.93;10.80;;;17.60;99.90;;;;;;5027232;28;20241;-38
2021/08/13 04:43:53;;;;;;;10.83;9.60;;;17.60;99.90;;;;;;5040688;28;20223;-39
2021/08/13 04:46:19;;;;;;;12.50;10.67;;;17.60;99.90;;;;;;5033692;28;20225;-39
2021/08/13 04:48:44;;;;;;;12.30;11.07;;;17.60;99.90;;;;;;5027569;28;20568;-39
2021/08/13 04:51:10;;;;;;;11.53;10.43;;;17.60;99.90;;;;;;5036779;28;20219;-39
2021/08/13 04:53:36;;;;;;;11.37;10.30;;;17.60;99.90;;;;;;5028039;28;20197;-38
2021/08/13 04:56:01;;;;;;;11.53;10.43;;;17.60;99.90;;;;;;5026113;28;20187;-39
2021/08/13 04:58:27;;;;;;;11.80;10.60;;;17.60;99.90;;;;;;5040798;28;20239;-38
2021/08/13 05:00:54;;;;;;;11.13;10.03;;;17.70;99.90;;;;;;5040442;28;20235;-38
2021/08/13 05:03:20;;;;;;;11.27;10.17;;;17.70;99.90;;;;;;5033644;28;20275;-38
2021/08/13 05:05:45;;;;;;;11.20;10.10;;;17.60;99.90;;;;;;5030832;28;20484;-39
2021/08/13 05:08:11;;;;;;;11.13;10.07;;;17.70;99.90;;;;;;5027533;28;20639;-39
2021/08/13 05:10:38;;;;;;;12.10;9.73;;;17.60;99.90;;;;;;5026170;28;20210;-39
2021/08/13 05:13:04;;;;;;;10.93;9.83;;;17.70;99.90;;;;;;5033137;28;20192;-38
2021/08/13 05:15:29;;;;;;;11.93;10.00;;;17.70;99.90;;;;;;5041197;28;20416;-38
2021/08/13 05:17:55;;;;;;;12.10;10.90;;;17.70;99.90;;;;;;5033016;28;20300;-38
2021/08/13 05:20:21;;;;;;;12.60;11.27;;;17.80;99.90;;;;;;5027565;28;20240;-38
2021/08/13 05:22:47;;;;;;;12.10;10.93;;;17.90;99.90;;;;;;5027947;28;20371;-38
2021/08/13 05:25:16;;;;;;;10.60;9.53;;;17.90;99.90;;;;;;5027731;28;20753;-38
2021/08/13 05:27:42;;;;;;;11.17;10.07;;;17.90;99.90;;;;;;5031637;28;20300;-38
2021/08/13 05:30:09;;;;;;;11.20;10.10;;;17.90;99.90;;;;;;5041712;28;20473;-38
2021/08/13 05:32:42;;;;;;;13.07;10.20;;;17.90;99.90;;;;;;5028226;28;20189;-38
2021/08/13 05:35:09;;;;;;;10.60;9.60;;;18.00;99.90;;;;;;5032441;28;20752;-40
2021/08/13 05:37:35;;;;;;;12.47;11.27;;;18.00;99.90;;;;;;5030828;28;20425;-39
2021/08/13 05:40:01;;;;;;;10.93;9.73;;;18.10;99.90;;;;;;5023585;28;20437;-39
2021/08/13 05:42:26;;;;;;;10.63;9.60;;;18.10;99.90;;;;;;5037637;28;20483;-38
2021/08/13 05:44:52;;;;;;;10.93;9.93;;;18.10;99.90;;;;;;5042416;28;20182;-38
2021/08/13 05:47:18;;;;;;;10.17;9.13;;;18.20;99.90;;;;;;5030802;28;20198;-39
2021/08/13 05:49:44;;;;;;;11.70;10.60;;;18.30;99.90;;;;;;5026983;28;20216;-38
2021/08/13 05:52:10;;;;;;;11.93;10.20;;;18.40;99.90;;;;;;5030722;28;20440;-38
2021/08/13 05:54:36;;;;;;;11.33;10.23;;;18.40;99.90;;;;;;5035845;28;20209;-39
2021/08/13 05:57:02;;;;;;;11.53;10.33;;;18.50;99.90;;;;;;5039671;28;20221;-38
2021/08/13 05:59:27;;;;;;;12.27;10.63;;;18.60;99.90;;;;;;5036091;28;20432;-41
2021/08/13 06:01:53;;;;;;;10.33;9.33;;;18.70;99.90;;;;;;5040434;28;20451;-38
2021/08/13 06:04:19;;;;;;;10.13;9.13;;;18.80;99.90;;;;;;5026719;28;20738;-39
2021/08/13 06:06:45;;;;;;;11.13;10.00;;;18.90;99.90;;;;;;5027965;28;20209;-39
2021/08/13 06:09:11;;;;;;;11.60;9.53;;;19.00;99.90;;;;;;5026934;28;20260;-38
2021/08/13 06:11:37;;;;;;;11.73;10.03;;;19.10;99.90;;;;;;5030282;28;20245;-38
2021/08/13 06:14:03;;;;;;;10.13;9.13;;;19.20;99.90;;;;;;5032978;28;20950;-39
2021/08/13 06:16:28;;;;;;;10.77;9.70;;;19.30;99.90;;;;;;5030226;28;20429;-38
2021/08/13 06:18:54;;;;;;;13.53;10.03;;;19.40;99.90;;;;;;5024845;28;20649;-38
2021/08/13 06:21:20;;;;;;;12.07;9.50;;;19.60;99.90;;;;;;5036024;28;20209;-39
2021/08/13 06:23:45;;;;;;;13.53;9.90;;;19.70;99.90;;;;;;5025826;28;20236;-39
2021/08/13 06:26:12;;;;;;;9.77;8.70;;;19.80;99.90;;;;;;5026532;28;20202;-39
2021/08/13 06:28:38;;;;;;;11.10;9.87;;;19.90;99.90;;;;;;5029122;28;20194;-40
2021/08/13 06:31:04;;;;;;;11.83;10.60;;;20.00;99.90;;;;;;5037432;28;20473;-39
2021/08/13 06:33:30;;;;;;;10.93;9.80;;;20.10;99.90;;;;;;5026363;28;20479;-39
2021/08/13 06:35:56;;;;;;;11.00;9.90;;;20.10;99.90;;;;;;5031790;28;20428;-39
2021/08/13 06:38:22;;;;;;;11.87;9.50;;;20.20;99.90;;;;;;5028544;28;20537;-39
2021/08/13 06:40:48;;;;;;;10.80;9.53;;;20.30;99.90;;;;;;5032777;28;20289;-39
2021/08/13 06:43:14;;;;;;;13.17;9.90;;;20.40;99.90;;;;;;5039771;28;20480;-39
2021/08/13 06:45:39;;;;;;;12.33;9.90;;;20.40;99.90;;;;;;5038503;28;20189;-40
2021/08/13 06:48:05;;;;;;;12.10;9.50;;;20.50;99.90;;;;;;5035608;28;20286;-39
2021/08/13 06:50:30;;;;;;;12.30;10.30;;;20.60;99.90;;;;;;5026783;28;20213;-39
2021/08/13 06:52:56;;;;;;;10.80;9.70;;;20.80;99.90;;;;;;5025864;28;20195;-40
2021/08/13 06:55:22;;;;;;;10.30;9.30;;;20.80;99.90;;;;;;5025955;28;20222;-40
2021/08/13 06:57:47;;;;;;;10.40;9.33;;;20.90;99.90;;;;;;5032295;28;20203;-42
2021/08/13 07:00:14;;;;;;;10.80;9.70;;;21.00;99.90;;;;;;5035969;28;20224;-39
2021/08/13 07:02:40;;;;;;;9.90;8.90;;;21.00;99.90;;;;;;5030480;28;20190;-40
2021/08/13 07:05:06;;;;;;;11.10;9.30;;;21.00;99.90;;;;;;5025621;28;20491;-42
2021/08/13 07:07:32;;;;;;;9.77;8.80;;;21.10;99.90;;;;;;5035295;28;20441;-40
2021/08/13 07:09:58;;;;;;;9.87;8.87;;;21.00;99.90;;;;;;5025979;28;20470;-41
2021/08/13 07:12:24;;;;;;;10.57;9.47;;;21.10;99.90;;;;;;5025848;28;20222;-40
2021/08/13 07:14:50;;;;;;;9.60;8.70;;;21.00;99.90;;;;;;5034833;28;20966;-39
2021/08/13 07:17:15;;;;;;;11.03;9.90;;;21.10;99.90;;;;;;5033071;28;20641;-42
2021/08/13 07:19:41;;;;;;;11.40;9.40;;;21.20;99.90;;;;;;5042021;28;20182;-42
2021/08/13 07:22:07;;;;;;;10.93;9.93;;;21.20;99.90;;;;;;5030169;28;20244;-43
2021/08/13 07:24:32;;;;;;;10.77;9.30;;;21.30;99.90;;;;;;5025895;28;20190;-39
2021/08/13 07:26:58;;;;;;;12.70;10.03;;;21.30;99.90;;;;;;5024991;28;20469;-44
2021/08/13 07:29:24;;;;;;;10.90;9.80;;;21.40;99.90;;;;;;5034652;28;20187;-42
2021/08/13 07:31:51;;;;;;;10.43;9.40;;;21.40;99.90;;;;;;5046276;28;20475;-41
2021/08/13 07:34:17;;;;;;;10.60;9.60;;;21.40;99.90;;;;;;5034472;28;20190;-41
2021/08/13 07:36:43;;;;;;;11.13;9.70;;;21.50;99.90;;;;;;5032216;28;21208;-42
2021/08/13 07:39:09;;;;;;;11.73;10.07;;;21.50;99.90;;;;;;5028256;28;20237;-40
2021/08/13 07:41:34;;;;;;;11.53;9.73;;;21.60;99.90;;;;;;5035921;28;20202;-40
2021/08/13 07:44:00;;;;;;;11.20;9.70;;;21.70;99.90;;;;;;5043699;28;20529;-43
2021/08/13 07:46:26;;;;;;;10.80;9.70;;;21.80;99.90;;;;;;5041048;28;20661;-40
2021/08/13 07:48:51;;;;;;;9.80;8.90;;;21.90;99.90;;;;;;5033036;28;20588;-42
2021/08/13 07:51:17;;;;;;;13.43;10.00;;;21.90;99.90;;;;;;5035926;28;20300;-39
2021/08/13 07:53:43;;;;;;;13.50;9.90;;;21.90;99.90;;;;;;5033818;28;20542;-43
2021/08/13 07:56:08;;;;;;;11.33;10.23;;;22.00;99.90;;;;;;5029244;28;20547;-40
2021/08/13 07:58:35;;;;;;;11.63;10.43;;;22.10;99.90;;;;;;5029075;28;20200;-40
2021/08/13 08:01:01;;;;;;;10.67;9.57;;;22.10;99.90;;;;;;5039330;28;20186;-41
2021/08/13 08:03:26;;;;;;;11.27;10.07;;;22.10;99.90;;;;;;5031751;28;20486;-40
2021/08/13 08:05:52;;;;;;;13.43;9.87;;;22.10;99.90;;;;;;5030793;28;20202;-40
2021/08/13 08:08:18;;;;;;;12.60;10.87;;;22.10;99.90;;;;;;5033708;28;20236;-39
2021/08/13 08:10:46;;;;;;;11.63;10.23;;;22.20;99.90;;;;;;5029612;28;20632;-39
2021/08/13 08:13:16;;;;;;;13.90;10.00;;;22.20;99.90;;;;;;5028007;28;20174;-40
2021/08/13 08:15:43;;;;;;;15.13;10.50;;;22.30;99.90;;;;;;5032692;28;20953;-40
2021/08/13 08:18:09;;;;;;;15.10;11.50;;;22.30;99.90;;;;;;5034576;28;20943;-40
2021/08/13 08:20:35;;;;;;;13.27;11.30;;;22.30;99.90;;;;;;5028455;28;20425;-41
2021/08/13 08:23:01;;;;;;;12.57;10.43;;;22.30;99.90;;;;;;5031188;28;20385;-40
2021/08/13 08:25:27;;;;;;;11.70;10.50;;;22.30;99.90;;;;;;5028796;28;20761;-44
2021/08/13 08:27:52;;;;;;;11.53;10.43;;;22.30;99.90;;;;;;5030243;28;20187;-39
2021/08/13 08:30:18;;;;;;;12.23;10.90;;;22.30;99.90;;;;;;5033202;28;20709;-39
2021/08/13 08:32:44;;;;;;;13.57;11.90;;;22.30;99.90;;;;;;5034780;28;20186;-39
2021/08/13 08:35:10;;;;;;;13.23;11.83;;;22.30;99.90;;;;;;5028669;28;20661;-40
2021/08/13 08:37:52;;;;;;;11.90;10.70;;;22.30;99.90;;;;;;5039185;28;20178;-42
2021/08/13 08:40:26;;;;;;;18.87;12.90;;;22.20;99.90;;;;;;5026229;28;20429;-42
2021/08/13 08:42:56;;;;;;;16.13;14.20;;;22.30;99.90;;;;;;5027062;28;20944;-41
2021/08/13 08:45:25;;;;;;;15.37;13.60;;;22.30;99.90;;;;;;5034943;28;20801;-39
2021/08/13 08:47:53;;;;;;;16.00;14.40;;;22.30;99.90;;;;;;5031793;28;20425;-39
2021/08/13 08:50:21;;;;;;;15.30;13.67;;;22.30;99.90;;;;;;5027352;28;21073;-43
2021/08/13 08:52:49;;;;;;;15.90;14.30;;;22.20;99.90;;;;;;5035743;28;20429;-40
2021/08/13 08:55:14;;;;;;;19.50;16.97;;;22.30;99.90;;;;;;5027890;28;20417;-40
2021/08/13 08:57:42;;;;;;;17.40;15.40;;;22.30;99.90;;;;;;5027231;28;20527;-40
2021/08/13 09:00:08;;;;;;;19.00;15.17;;;22.30;99.90;;;;;;5040339;28;20256;-39
2021/08/13 09:02:35;;;;;;;17.60;15.40;;;22.30;99.90;;;;;;5045100;28;20877;-39
2021/08/13 09:05:00;;;;;;;18.13;16.23;;;22.30;99.90;;;;;;5033348;28;20993;-42
2021/08/13 09:07:27;;;;;;;20.60;16.93;;;22.40;99.90;;;;;;5030717;28;20443;-40
2021/08/13 09:09:53;;;;;;;20.50;18.30;;;22.40;99.90;;;;;;5028621;28;20191;-39
2021/08/13 09:12:20;;;;;;;21.30;17.37;;;22.50;99.90;;;;;;5027335;28;20456;-39
2021/08/13 09:14:46;;;;;;;17.97;16.17;;;22.60;99.90;;;;;;5034671;28;20436;-42
2021/08/13 09:17:12;;;;;;;19.20;17.20;;;22.60;99.90;;;;;;5044865;28;20482;-40
2021/08/13 09:19:46;;;;;;;19.20;16.97;;;22.60;99.90;;;;;;5026986;28;20511;-39
2021/08/13 09:22:20;;;;;;;18.70;16.80;;;22.70;99.90;;;;;;5036080;28;20181;-40
2021/08/13 09:24:48;;;;;;;18.00;15.50;;;22.70;99.90;;;;;;5030531;28;20460;-39
2021/08/13 09:27:23;;;;;;;19.03;16.17;;;22.80;99.90;;;;;;5027343;28;20448;-40
2021/08/13 09:30:15;;;;;;;19.27;16.70;;;22.90;99.90;;;;;;5037935;28;20427;-42
2021/08/13 09:32:43;;;;;;;21.33;17.57;;;22.90;99.90;;;;;;5037427;28;20436;-40
2021/08/13 09:35:10;;;;;;;18.50;15.47;;;23.00;99.90;;;;;;5027247;28;20900;-40
2021/08/13 09:37:38;;;;;;;24.30;17.53;;;23.10;99.90;;;;;;5035219;28;20424;-41
2021/08/13 09:40:05;;;;;;;19.50;17.43;;;23.20;99.90;;;;;;5025269;28;20436;-40
2021/08/13 09:42:34;;;;;;;20.47;16.40;;;23.30;99.90;;;;;;5026820;28;20425;-39
2021/08/13 09:45:02;;;;;;;17.80;15.90;;;23.30;99.90;;;;;;5039483;28;20435;-39
2021/08/13 09:47:57;;;;;;;20.80;18.60;;;23.30;99.90;;;;;;5035770;28;20429;-40
2021/08/13 09:50:34;;;;;;;19.63;17.43;;;23.40;99.90;;;;;;5021493;28;20818;-43
2021/08/13 09:53:14;;;;;;;31.17;19.57;;;23.50;99.90;;;;;;5030205;28;20429;-40
2021/08/13 09:55:41;;;;;;;17.57;15.77;;;23.50;99.90;;;;;;5027308;28;20455;-39
2021/08/13 09:58:09;;;;;;;19.67;17.17;;;23.60;99.90;;;;;;5025955;28;20443;-39
2021/08/13 10:00:45;;;;;;;21.43;18.40;;;23.70;99.90;;;;;;5041852;28;20420;-39
2021/08/13 10:03:11;;;;;;;22.40;20.07;;;23.80;99.90;;;;;;5041101;28;20431;-44
2021/08/13 10:05:37;;;;;;;22.40;18.13;;;23.90;99.90;;;;;;5027219;28;20798;-39
2021/08/13 10:08:05;;;;;;;21.73;19.40;;;24.00;99.90;;;;;;5039228;28;20432;-40
2021/08/13 10:10:41;;;;;;;20.67;18.67;;;24.00;99.90;;;;;;5026739;28;20469;-40
2021/08/13 10:13:09;;;;;;;21.40;19.10;;;24.10;99.90;;;;;;5026540;28;20423;-39
2021/08/13 10:15:46;;;;;;;20.77;18.57;;;24.10;99.90;;;;;;5032796;28;20451;-41
2021/08/13 10:18:15;;;;;;;20.27;17.37;;;24.20;99.90;;;;;;5038766;28;20451;-45
2021/08/13 10:20:43;;;;;;;16.00;14.27;;;24.20;99.90;;;;;;5025864;28;20505;-42
2021/08/13 10:23:10;;;;;;;18.90;16.07;;;24.20;99.90;;;;;;5034747;28;20425;-45
2021/08/13 10:25:36;;;;;;;18.63;15.87;;;24.30;99.90;;;;;;5026396;28;20420;-39
2021/08/13 10:28:02;;;;;;;17.50;15.50;;;24.30;99.90;;;;;;5026531;28;20417;-39
2021/08/13 10:30:28;;;;;;;18.33;15.10;;;24.40;99.90;;;;;;5033255;28;20467;-39
2021/08/13 10:32:57;;;;;;;15.77;13.70;;;24.40;99.90;;;;;;5037879;28;20946;-43
2021/08/13 10:35:34;;;;;;;20.77;18.57;;;24.40;99.90;;;;;;5034989;28;20293;-43
2021/08/13 10:38:01;;;;;;;21.50;18.53;;;24.40;99.90;;;;;;5030803;28;20699;-45
2021/08/13 10:40:29;;;;;;;17.97;16.13;;;24.30;99.90;;;;;;5023658;28;20989;-41
2021/08/13 10:42:55;;;;;;;19.33;17.33;;;24.30;99.90;;;;;;5025582;28;20439;-40
2021/08/13 10:45:22;;;;;;;25.37;15.70;;;24.30;99.90;;;;;;5034719;28;20444;-40
2021/08/13 10:47:51;;;;;;;23.37;19.23;;;24.40;99.90;;;;;;5034709;28;20478;-41
2021/08/13 10:50:18;;;;;;;21.47;19.13;;;24.40;99.90;;;;;;5024818;28;20514;-39
2021/08/13 10:52:44;;;;;;;20.70;16.93;;;24.40;99.90;;;;;;5032617;28;20927;-40
2021/08/13 10:55:41;;;;;;;16.20;13.30;;;24.50;99.90;;;;;;5032113;28;20437;-40
2021/08/13 10:58:06;;;;;;;14.30;12.70;;;24.60;99.90;;;;;;5026204;28;20417;-39
2021/08/13 11:01:09;;;;;;;17.13;13.27;;;24.50;99.90;;;;;;5028296;28;20532;-42
2021/08/13 11:03:53;;;;;;;15.93;12.63;;;24.60;99.90;;;;;;5031760;28;20202;-43
2021/08/13 11:06:37;;;;;;;13.53;12.13;;;24.60;99.90;;;;;;5025206;28;20429;-42
2021/08/13 11:09:11;;;;;;;13.50;12.10;;;24.60;99.90;;;;;;5033985;28;20457;-39
2021/08/13 11:12:13;;;;;;;12.73;10.63;;;24.60;99.90;;;;;;5026945;28;20953;-41
2021/08/13 11:14:46;;;;;;;12.07;10.87;;;24.50;99.90;;;;;;5027112;28;20444;-39
2021/08/13 11:17:36;;;;;;;12.97;10.80;;;24.50;99.90;;;;;;5036282;28;20425;-40
2021/08/13 11:20:05;;;;;;;10.93;9.80;;;24.60;99.90;;;;;;5024951;28;20417;-40
2021/08/13 11:22:35;;;;;;;11.90;9.37;;;24.70;99.90;;;;;;5028468;28;20451;-42
2021/08/13 11:25:02;;;;;;;8.87;7.70;;;24.70;99.90;;;;;;5026703;28;20504;-41
2021/08/13 11:27:28;;;;;;;9.60;8.10;;;24.70;99.90;;;;;;5030824;28;20439;-39
2021/08/13 11:29:54;;;;;;;8.87;7.50;;;24.80;99.90;;;;;;5032371;28;20437;-42
2021/08/13 11:32:19;;;;;;;11.90;7.53;;;24.80;99.90;;;;;;5035442;28;20206;-42
2021/08/13 11:34:50;;;;;;;9.13;6.63;;;24.80;99.90;;;;;;5036284;28;20570;-40
2021/08/13 11:37:41;;;;;;;10.80;8.43;;;24.80;99.90;;;;;;5036411;28;20800;-39
2021/08/13 11:40:30;;;;;;;9.03;8.13;;;24.90;99.90;;;;;;5030334;28;20484;-42
2021/08/13 11:43:02;;;;;;;8.07;7.27;;;24.90;99.90;;;;;;5024932;28;20453;-40
2021/08/13 11:45:40;;;;;;;9.90;8.03;;;25.00;99.90;;;;;;5037069;28;20449;-43
2021/08/13 11:48:06;;;;;;;9.17;7.90;;;25.10;99.90;;;;;;5039143;28;20423;-42
2021/08/13 11:50:33;;;;;;;13.10;7.27;;;25.10;99.90;;;;;;5025321;28;20568;-39
2021/08/13 11:52:58;;;;;;;8.67;7.73;;;25.20;99.90;;;;;;5029152;28;20491;-40
2021/08/13 11:55:29;;;;;;;7.90;6.80;;;25.20;99.90;;;;;;5029684;28;20853;-43
2021/08/13 11:58:00;;;;;;;7.23;6.53;;;25.20;99.90;;;;;;5025604;28;20186;-42
2021/08/13 12:00:29;;;;;;;8.10;6.60;;;25.20;99.90;;;;;;5028877;28;20463;-42
2021/08/13 12:03:01;;;;;;;7.90;7.20;;;25.10;99.90;;;;;;5038345;28;20901;-39
2021/08/13 12:05:37;;;;;;;6.57;5.97;;;25.10;99.90;;;;;;5039945;28;20447;-42
2021/08/13 12:08:06;;;;;;;8.33;6.53;;;25.00;99.90;;;;;;5029598;28;20474;-41
2021/08/13 12:10:33;;;;;;;7.90;6.37;;;25.00;99.90;;;;;;5025767;28;20496;-39
2021/08/13 12:13:08;;;;;;;7.70;6.30;;;25.00;99.90;;;;;;5025572;28;20742;-40
2021/08/13 12:15:36;;;;;;;13.20;6.27;;;25.00;99.90;;;;;;5032663;28;20976;-42
2021/08/13 12:18:04;;;;;;;6.83;4.87;;;25.00;99.90;;;;;;5044715;28;20897;-43
2021/08/13 12:20:30;;;;;;;6.77;5.33;;;25.00;99.90;;;;;;5036760;28;20437;-42
2021/08/13 12:23:01;;;;;;;9.17;5.70;;;25.00;99.90;;;;;;5029144;28;20437;-42
2021/08/13 12:25:35;;;;;;;5.50;5.00;;;24.90;99.90;;;;;;5028634;28;20835;-42
2021/08/13 12:28:02;;;;;;;5.67;5.00;;;24.90;99.90;;;;;;5028618;28;20464;-41
2021/08/13 12:30:28;;;;;;;4.93;4.50;;;24.90;99.90;;;;;;5026949;28;20476;-41
2021/08/13 12:32:54;;;;;;;9.80;4.70;;;24.90;99.90;;;;;;5028733;28;20435;-42
2021/08/13 12:35:21;;;;;;;5.00;4.50;;;25.00;99.90;;;;;;5030500;28;20447;-44
2021/08/13 12:37:47;;;;;;;5.30;3.83;;;25.00;99.90;;;;;;5028632;28;20490;-41